sensor_id;sensor_type;location;lat;lon;timestamp;pressure;altitude;pressure_sealevel;temperature;humidity
64886;BME280;51514;52.206;5.114;2022-07-29T00:01:21;101865.81;;;18.10;60.94
64886;BME280;51514;52.206;5.114;2022-07-29T00:03:47;101868.56;;;18.10;61.04
64886;BME280;51514;52.206;5.114;2022-07-29T00:06:13;101868.75;;;18.08;60.97
64886;BME280;51514;52.206;5.114;2022-07-29T00:08:38;101858.00;;;18.07;61.17
64886;BME280;51514;52.206;5.114;2022-07-29T00:11:03;101861.56;;;18.07;61.22
64886;BME280;51514;52.206;5.114;2022-07-29T00:13:29;101855.09;;;18.08;61.17
64886;BME280;51514;52.206;5.114;2022-07-29T00:15:54;101855.34;;;17.99;61.47
64886;BME280;51514;52.206;5.114;2022-07-29T00:18:19;101851.41;;;18.01;61.43
64886;BME280;51514;52.206;5.114;2022-07-29T00:20:44;101849.53;;;18.02;61.66
64886;BME280;51514;52.206;5.114;2022-07-29T00:23:10;101850.88;;;18.06;61.72
64886;BME280;51514;52.206;5.114;2022-07-29T00:25:35;101845.41;;;18.06;61.30
64886;BME280;51514;52.206;5.114;2022-07-29T00:28:00;101840.97;;;18.05;61.53
64886;BME280;51514;52.206;5.114;2022-07-29T00:30:26;101842.19;;;18.02;61.65
64886;BME280;51514;52.206;5.114;2022-07-29T00:32:51;101836.72;;;18.02;61.62
64886;BME280;51514;52.206;5.114;2022-07-29T00:35:16;101829.75;;;18.00;61.76
64886;BME280;51514;52.206;5.114;2022-07-29T00:38:00;101828.91;;;17.99;61.78
64886;BME280;51514;52.206;5.114;2022-07-29T00:40:26;101822.59;;;17.99;61.41
64886;BME280;51514;52.206;5.114;2022-07-29T00:42:51;101824.88;;;17.95;61.83
64886;BME280;51514;52.206;5.114;2022-07-29T00:45:17;101827.59;;;17.95;61.86
64886;BME280;51514;52.206;5.114;2022-07-29T00:47:43;101827.78;;;17.94;61.89
64886;BME280;51514;52.206;5.114;2022-07-29T00:50:10;101819.59;;;17.94;61.78
64886;BME280;51514;52.206;5.114;2022-07-29T00:52:38;101813.63;;;17.90;62.02
64886;BME280;51514;52.206;5.114;2022-07-29T00:55:04;101816.72;;;17.87;62.21
64886;BME280;51514;52.206;5.114;2022-07-29T00:57:30;101813.53;;;17.83;62.08
64886;BME280;51514;52.206;5.114;2022-07-29T00:59:56;101814.72;;;17.81;62.23
64886;BME280;51514;52.206;5.114;2022-07-29T01:02:21;101822.25;;;17.79;62.34
64886;BME280;51514;52.206;5.114;2022-07-29T01:04:46;101818.00;;;17.76;62.30
64886;BME280;51514;52.206;5.114;2022-07-29T01:07:12;101815.28;;;17.76;62.28
64886;BME280;51514;52.206;5.114;2022-07-29T01:09:38;101814.59;;;17.74;62.42
64886;BME280;51514;52.206;5.114;2022-07-29T01:12:04;101814.59;;;17.74;62.42
64886;BME280;51514;52.206;5.114;2022-07-29T01:14:30;101812.06;;;17.73;62.23
64886;BME280;51514;52.206;5.114;2022-07-29T01:17:03;101814.97;;;17.71;62.29
64886;BME280;51514;52.206;5.114;2022-07-29T01:19:47;101815.34;;;17.68;62.66
64886;BME280;51514;52.206;5.114;2022-07-29T01:22:27;101812.78;;;17.67;62.53
64886;BME280;51514;52.206;5.114;2022-07-29T01:28:16;101804.97;;;17.64;62.70
64886;BME280;51514;52.206;5.114;2022-07-29T01:30:47;101807.00;;;17.62;62.73
64886;BME280;51514;52.206;5.114;2022-07-29T01:33:17;101809.75;;;17.62;62.67
64886;BME280;51514;52.206;5.114;2022-07-29T01:36:07;101805.13;;;17.62;62.80
64886;BME280;51514;52.206;5.114;2022-07-29T01:38:37;101808.88;;;17.61;62.73
64886;BME280;51514;52.206;5.114;2022-07-29T01:41:16;101806.69;;;17.57;63.00
64886;BME280;51514;52.206;5.114;2022-07-29T01:43:56;101804.81;;;17.57;62.89
64886;BME280;51514;52.206;5.114;2022-07-29T01:46:31;101801.22;;;17.57;63.04
64886;BME280;51514;52.206;5.114;2022-07-29T01:49:02;101807.53;;;17.57;62.97
64886;BME280;51514;52.206;5.114;2022-07-29T01:51:53;101808.91;;;17.53;63.38
64886;BME280;51514;52.206;5.114;2022-07-29T01:54:21;101802.81;;;17.51;62.96
64886;BME280;51514;52.206;5.114;2022-07-29T01:56:51;101799.41;;;17.49;63.08
64886;BME280;51514;52.206;5.114;2022-07-29T01:59:20;101807.44;;;17.50;63.10
64886;BME280;51514;52.206;5.114;2022-07-29T02:01:46;101802.16;;;17.49;63.16
64886;BME280;51514;52.206;5.114;2022-07-29T02:04:14;101804.88;;;17.49;63.06
64886;BME280;51514;52.206;5.114;2022-07-29T02:06:41;101805.22;;;17.46;62.96
64886;BME280;51514;52.206;5.114;2022-07-29T02:09:08;101796.38;;;17.44;62.96
64886;BME280;51514;52.206;5.114;2022-07-29T02:11:35;101807.28;;;17.44;62.96
64886;BME280;51514;52.206;5.114;2022-07-29T02:14:03;101796.75;;;17.41;63.22
64886;BME280;51514;52.206;5.114;2022-07-29T02:16:30;101808.47;;;17.41;63.15
64886;BME280;51514;52.206;5.114;2022-07-29T02:18:59;101804.09;;;17.40;63.01
64886;BME280;51514;52.206;5.114;2022-07-29T02:21:26;101799.66;;;17.39;63.18
64886;BME280;51514;52.206;5.114;2022-07-29T02:23:54;101795.06;;;17.40;63.69
64886;BME280;51514;52.206;5.114;2022-07-29T02:26:23;101800.50;;;17.40;63.40
64886;BME280;51514;52.206;5.114;2022-07-29T02:28:51;101800.84;;;17.37;63.49
64886;BME280;51514;52.206;5.114;2022-07-29T02:31:22;101797.28;;;17.36;63.54
64886;BME280;51514;52.206;5.114;2022-07-29T02:33:48;101800.84;;;17.37;63.41
64886;BME280;51514;52.206;5.114;2022-07-29T02:36:15;101799.00;;;17.37;63.47
64886;BME280;51514;52.206;5.114;2022-07-29T02:38:42;101789.97;;;17.37;63.41
64886;BME280;51514;52.206;5.114;2022-07-29T02:41:35;101791.16;;;17.34;63.49
64886;BME280;51514;52.206;5.114;2022-07-29T02:44:06;101787.41;;;17.35;63.51
64886;BME280;51514;52.206;5.114;2022-07-29T02:46:35;101788.25;;;17.36;63.49
64886;BME280;51514;52.206;5.114;2022-07-29T02:49:08;101790.31;;;17.34;63.41
64886;BME280;51514;52.206;5.114;2022-07-29T02:51:46;101788.78;;;17.31;63.71
64886;BME280;51514;52.206;5.114;2022-07-29T02:54:27;101786.06;;;17.31;63.79
64886;BME280;51514;52.206;5.114;2022-07-29T02:56:59;101787.94;;;17.31;63.60
64886;BME280;51514;52.206;5.114;2022-07-29T02:59:27;101786.44;;;17.28;63.63
64886;BME280;51514;52.206;5.114;2022-07-29T03:01:57;101784.75;;;17.27;63.93
64886;BME280;51514;52.206;5.114;2022-07-29T03:04:24;101791.88;;;17.28;63.88
64886;BME280;51514;52.206;5.114;2022-07-29T03:06:52;101791.03;;;17.28;63.91
64886;BME280;51514;52.206;5.114;2022-07-29T03:09:18;101776.75;;;17.26;63.74
64886;BME280;51514;52.206;5.114;2022-07-29T03:11:43;101784.91;;;17.26;63.64
64886;BME280;51514;52.206;5.114;2022-07-29T03:14:09;101785.25;;;17.23;63.75
64886;BME280;51514;52.206;5.114;2022-07-29T03:16:35;101784.25;;;17.24;63.99
64886;BME280;51514;52.206;5.114;2022-07-29T03:19:02;101778.78;;;17.24;63.84
64886;BME280;51514;52.206;5.114;2022-07-29T03:21:28;101776.91;;;17.24;64.10
64886;BME280;51514;52.206;5.114;2022-07-29T03:23:53;101770.59;;;17.24;64.08
64886;BME280;51514;52.206;5.114;2022-07-29T03:26:18;101772.47;;;17.23;63.90
64886;BME280;51514;52.206;5.114;2022-07-29T03:28:44;101767.03;;;17.23;63.63
64886;BME280;51514;52.206;5.114;2022-07-29T03:31:09;101762.78;;;17.21;63.87
64886;BME280;51514;52.206;5.114;2022-07-29T03:33:34;101758.38;;;17.20;63.63
64886;BME280;51514;52.206;5.114;2022-07-29T03:36:00;101762.78;;;17.21;63.71
64886;BME280;51514;52.206;5.114;2022-07-29T03:38:29;101769.47;;;17.18;63.45
64886;BME280;51514;52.206;5.114;2022-07-29T03:41:06;101773.22;;;17.17;64.06
64886;BME280;51514;52.206;5.114;2022-07-29T03:43:35;101763.16;;;17.18;63.99
64886;BME280;51514;52.206;5.114;2022-07-29T03:46:03;101762.31;;;17.17;63.77
64886;BME280;51514;52.206;5.114;2022-07-29T03:48:32;101764.00;;;17.18;64.11
64886;BME280;51514;52.206;5.114;2022-07-29T03:51:00;101763.16;;;17.18;63.87
64886;BME280;51514;52.206;5.114;2022-07-29T03:53:26;101761.47;;;17.17;63.93
64886;BME280;51514;52.206;5.114;2022-07-29T03:55:54;101761.63;;;17.15;63.99
64886;BME280;51514;52.206;5.114;2022-07-29T03:58:26;101761.63;;;17.15;63.95
64886;BME280;51514;52.206;5.114;2022-07-29T04:00:52;101773.56;;;17.14;64.00
64886;BME280;51514;52.206;5.114;2022-07-29T04:03:18;101760.13;;;17.12;63.95
64886;BME280;51514;52.206;5.114;2022-07-29T04:05:44;101767.25;;;17.13;64.12
64886;BME280;51514;52.206;5.114;2022-07-29T04:08:09;101762.84;;;17.12;63.97
64886;BME280;51514;52.206;5.114;2022-07-29T04:10:35;101767.25;;;17.13;64.05
64886;BME280;51514;52.206;5.114;2022-07-29T04:13:00;101768.13;;;17.14;64.00
64886;BME280;51514;52.206;5.114;2022-07-29T04:15:26;101764.38;;;17.15;64.10
64886;BME280;51514;52.206;5.114;2022-07-29T04:17:53;101767.25;;;17.13;64.15
64886;BME280;51514;52.206;5.114;2022-07-29T04:20:18;101761.13;;;17.11;64.15
64886;BME280;51514;52.206;5.114;2022-07-29T04:22:44;101761.13;;;17.11;64.18
64886;BME280;51514;52.206;5.114;2022-07-29T04:25:09;101759.44;;;17.10;64.20
64886;BME280;51514;52.206;5.114;2022-07-29T04:27:35;101767.63;;;17.10;64.37
64886;BME280;51514;52.206;5.114;2022-07-29T04:30:01;101762.16;;;17.10;64.48
64886;BME280;51514;52.206;5.114;2022-07-29T04:32:26;101761.31;;;17.10;64.40
64886;BME280;51514;52.206;5.114;2022-07-29T04:34:52;101758.41;;;17.11;64.21
64886;BME280;51514;52.206;5.114;2022-07-29T04:37:18;101753.13;;;17.10;64.40
64886;BME280;51514;52.206;5.114;2022-07-29T04:39:43;101755.00;;;17.09;64.36
64886;BME280;51514;52.206;5.114;2022-07-29T04:42:08;101750.63;;;17.08;64.52
64886;BME280;51514;52.206;5.114;2022-07-29T04:44:34;101756.06;;;17.08;64.45
64886;BME280;51514;52.206;5.114;2022-07-29T04:46:59;101759.59;;;17.09;64.46
64886;BME280;51514;52.206;5.114;2022-07-29T04:49:25;101756.88;;;17.09;64.60
64886;BME280;51514;52.206;5.114;2022-07-29T04:51:50;101765.91;;;17.09;64.70
64886;BME280;51514;52.206;5.114;2022-07-29T04:54:15;101763.88;;;17.11;64.74
64886;BME280;51514;52.206;5.114;2022-07-29T04:56:41;101771.00;;;17.12;64.56
64886;BME280;51514;52.206;5.114;2022-07-29T04:59:06;101763.50;;;17.14;64.64
64886;BME280;51514;52.206;5.114;2022-07-29T05:01:32;101761.63;;;17.15;64.69
64886;BME280;51514;52.206;5.114;2022-07-29T05:03:57;101765.03;;;17.17;64.78
64886;BME280;51514;52.206;5.114;2022-07-29T05:06:22;101764.66;;;17.20;64.72
64886;BME280;51514;52.206;5.114;2022-07-29T05:08:48;101769.94;;;17.22;64.68
64886;BME280;51514;52.206;5.114;2022-07-29T05:11:13;101765.16;;;17.24;64.78
64886;BME280;51514;52.206;5.114;2022-07-29T05:13:39;101762.44;;;17.24;64.70
64886;BME280;51514;52.206;5.114;2022-07-29T05:16:04;101767.53;;;17.27;65.16
64886;BME280;51514;52.206;5.114;2022-07-29T05:18:30;101761.72;;;17.30;65.25
64886;BME280;51514;52.206;5.114;2022-07-29T05:20:55;101762.38;;;17.32;65.15
64886;BME280;51514;52.206;5.114;2022-07-29T05:23:20;101763.41;;;17.31;64.74
64886;BME280;51514;52.206;5.114;2022-07-29T05:25:46;101764.06;;;17.33;64.88
64886;BME280;51514;52.206;5.114;2022-07-29T05:28:11;101763.03;;;17.34;64.90
64886;BME280;51514;52.206;5.114;2022-07-29T05:30:37;101772.25;;;17.33;65.27
64886;BME280;51514;52.206;5.114;2022-07-29T05:33:02;101779.41;;;17.34;64.96
64886;BME280;51514;52.206;5.114;2022-07-29T05:35:27;101768.50;;;17.34;64.82
64886;BME280;51514;52.206;5.114;2022-07-29T05:37:53;101766.81;;;17.33;64.64
64886;BME280;51514;52.206;5.114;2022-07-29T05:40:18;101765.94;;;17.32;64.85
64886;BME280;51514;52.206;5.114;2022-07-29T05:42:43;101765.78;;;17.34;65.23
64886;BME280;51514;52.206;5.114;2022-07-29T05:45:09;101764.75;;;17.35;65.20
64886;BME280;51514;52.206;5.114;2022-07-29T05:47:35;101772.75;;;17.36;65.18
64886;BME280;51514;52.206;5.114;2022-07-29T05:50:00;101769.00;;;17.37;64.68
64886;BME280;51514;52.206;5.114;2022-07-29T05:52:25;101777.00;;;17.39;65.06
64886;BME280;51514;52.206;5.114;2022-07-29T05:54:51;101769.84;;;17.38;64.63
64886;BME280;51514;52.206;5.114;2022-07-29T05:57:18;101780.41;;;17.41;64.64
64886;BME280;51514;52.206;5.114;2022-07-29T05:59:43;101772.88;;;17.43;64.66
64886;BME280;51514;52.206;5.114;2022-07-29T06:02:09;101778.13;;;17.44;64.70
64886;BME280;51514;52.206;5.114;2022-07-29T06:04:34;101786.47;;;17.51;64.81
64886;BME280;51514;52.206;5.114;2022-07-29T06:06:59;101781.66;;;17.53;65.07
64886;BME280;51514;52.206;5.114;2022-07-29T06:09:25;101779.91;;;17.60;64.86
64886;BME280;51514;52.206;5.114;2022-07-29T06:11:51;101777.16;;;17.68;64.91
64886;BME280;51514;52.206;5.114;2022-07-29T06:14:17;101779.13;;;17.74;64.42
64886;BME280;51514;52.206;5.114;2022-07-29T06:16:42;101786.59;;;17.80;64.38
64886;BME280;51514;52.206;5.114;2022-07-29T06:19:07;101790.09;;;17.89;64.59
64886;BME280;51514;52.206;5.114;2022-07-29T06:21:33;101782.69;;;17.98;63.90
64886;BME280;51514;52.206;5.114;2022-07-29T06:23:58;101778.56;;;18.02;63.86
64886;BME280;51514;52.206;5.114;2022-07-29T06:26:24;101778.00;;;18.06;64.09
64886;BME280;51514;52.206;5.114;2022-07-29T06:28:49;101778.50;;;18.10;63.90
64886;BME280;51514;52.206;5.114;2022-07-29T06:31:14;101778.78;;;18.15;63.56
64886;BME280;51514;52.206;5.114;2022-07-29T06:33:40;101779.47;;;18.17;63.20
64886;BME280;51514;52.206;5.114;2022-07-29T06:36:05;101785.47;;;18.12;63.02
64886;BME280;51514;52.206;5.114;2022-07-29T06:38:32;101781.78;;;18.20;63.02
64886;BME280;51514;52.206;5.114;2022-07-29T06:40:59;101793.19;;;18.23;62.82
64886;BME280;51514;52.206;5.114;2022-07-29T06:43:25;101796.16;;;18.37;62.94
64886;BME280;51514;52.206;5.114;2022-07-29T06:45:50;101794.53;;;18.42;62.37
64886;BME280;51514;52.206;5.114;2022-07-29T06:48:15;101790.41;;;18.46;62.95
64886;BME280;51514;52.206;5.114;2022-07-29T06:50:41;101798.84;;;18.59;62.49
64886;BME280;51514;52.206;5.114;2022-07-29T06:53:06;101809.00;;;18.66;62.80
64886;BME280;51514;52.206;5.114;2022-07-29T06:55:31;101811.38;;;18.69;62.36
64886;BME280;51514;52.206;5.114;2022-07-29T06:57:57;101822.16;;;18.62;61.66
64886;BME280;51514;52.206;5.114;2022-07-29T07:00:22;101827.94;;;18.67;61.76
64886;BME280;51514;52.206;5.114;2022-07-29T07:02:47;101830.00;;;18.65;61.16
64886;BME280;51514;52.206;5.114;2022-07-29T07:05:12;101836.81;;;18.69;61.54
64886;BME280;51514;52.206;5.114;2022-07-29T07:07:38;101830.19;;;18.78;61.93
64886;BME280;51514;52.206;5.114;2022-07-29T07:10:03;101826.03;;;18.82;61.88
64886;BME280;51514;52.206;5.114;2022-07-29T07:12:29;101829.25;;;18.86;62.04
64886;BME280;51514;52.206;5.114;2022-07-29T07:14:54;101820.78;;;18.81;61.38
64886;BME280;51514;52.206;5.114;2022-07-29T07:17:19;101822.75;;;18.72;61.70
64886;BME280;51514;52.206;5.114;2022-07-29T07:19:45;101824.34;;;18.67;62.34
64886;BME280;51514;52.206;5.114;2022-07-29T07:22:10;101830.09;;;18.72;62.50
64886;BME280;51514;52.206;5.114;2022-07-29T07:24:35;101824.91;;;18.77;62.08
64886;BME280;51514;52.206;5.114;2022-07-29T07:27:01;101829.72;;;18.75;61.51
64886;BME280;51514;52.206;5.114;2022-07-29T07:29:26;101820.59;;;18.68;61.39
64886;BME280;51514;52.206;5.114;2022-07-29T07:31:52;101817.09;;;18.74;61.87
64886;BME280;51514;52.206;5.114;2022-07-29T07:34:17;101816.25;;;18.88;62.15
64886;BME280;51514;52.206;5.114;2022-07-29T07:36:42;101813.59;;;19.09;61.84
64886;BME280;51514;52.206;5.114;2022-07-29T07:39:08;101822.81;;;19.23;61.53
64886;BME280;51514;52.206;5.114;2022-07-29T07:41:33;101812.25;;;19.20;60.86
64886;BME280;51514;52.206;5.114;2022-07-29T07:43:58;101808.53;;;19.27;61.28
64886;BME280;51514;52.206;5.114;2022-07-29T07:46:24;101804.28;;;19.40;61.04
64886;BME280;51514;52.206;5.114;2022-07-29T07:48:49;101802.19;;;19.56;61.34
64886;BME280;51514;52.206;5.114;2022-07-29T07:51:14;101801.41;;;19.62;59.89
64886;BME280;51514;52.206;5.114;2022-07-29T07:53:40;101804.84;;;19.71;60.36
64886;BME280;51514;52.206;5.114;2022-07-29T07:56:05;101806.22;;;19.82;60.33
64886;BME280;51514;52.206;5.114;2022-07-29T07:58:32;101799.88;;;19.81;59.78
64886;BME280;51514;52.206;5.114;2022-07-29T08:00:58;101795.97;;;19.90;59.84
64886;BME280;51514;52.206;5.114;2022-07-29T08:03:23;101799.63;;;19.97;59.40
64886;BME280;51514;52.206;5.114;2022-07-29T08:05:48;101793.75;;;20.00;59.35
64886;BME280;51514;52.206;5.114;2022-07-29T08:08:16;101799.28;;;20.07;59.33
64886;BME280;51514;52.206;5.114;2022-07-29T08:10:41;101806.06;;;20.11;58.69
64886;BME280;51514;52.206;5.114;2022-07-29T08:13:21;101804.81;;;20.14;58.10
64886;BME280;51514;52.206;5.114;2022-07-29T08:15:47;101804.38;;;20.10;58.46
64886;BME280;51514;52.206;5.114;2022-07-29T08:18:13;101804.88;;;20.20;58.99
64886;BME280;51514;52.206;5.114;2022-07-29T08:20:39;101809.16;;;20.29;58.83
64886;BME280;51514;52.206;5.114;2022-07-29T08:23:06;101799.97;;;20.37;58.94
64886;BME280;51514;52.206;5.114;2022-07-29T08:25:35;101804.00;;;20.41;58.05
64886;BME280;51514;52.206;5.114;2022-07-29T08:28:00;101801.66;;;20.38;58.38
64886;BME280;51514;52.206;5.114;2022-07-29T08:30:26;101808.63;;;20.40;59.04
64886;BME280;51514;52.206;5.114;2022-07-29T08:32:51;101809.97;;;20.51;58.97
64886;BME280;51514;52.206;5.114;2022-07-29T08:35:18;101812.16;;;20.62;58.48
64886;BME280;51514;52.206;5.114;2022-07-29T08:37:44;101805.44;;;20.65;57.43
64886;BME280;51514;52.206;5.114;2022-07-29T08:40:09;101815.38;;;20.72;57.39
64886;BME280;51514;52.206;5.114;2022-07-29T08:42:35;101814.16;;;20.82;57.23
64886;BME280;51514;52.206;5.114;2022-07-29T08:45:00;101812.94;;;20.91;57.22
64886;BME280;51514;52.206;5.114;2022-07-29T08:47:27;101807.94;;;21.01;56.80
64886;BME280;51514;52.206;5.114;2022-07-29T08:49:52;101811.34;;;21.09;57.33
64886;BME280;51514;52.206;5.114;2022-07-29T08:52:18;101820.28;;;21.18;57.31
64886;BME280;51514;52.206;5.114;2022-07-29T08:54:45;101820.75;;;21.28;57.77
64886;BME280;51514;52.206;5.114;2022-07-29T08:57:13;101820.34;;;21.38;58.20
64886;BME280;51514;52.206;5.114;2022-07-29T08:59:40;101823.97;;;21.45;58.34
64886;BME280;51514;52.206;5.114;2022-07-29T09:02:14;101822.91;;;21.53;57.48
64886;BME280;51514;52.206;5.114;2022-07-29T09:04:41;101821.66;;;21.55;57.83
64886;BME280;51514;52.206;5.114;2022-07-29T09:07:07;101821.69;;;21.62;57.20
64886;BME280;51514;52.206;5.114;2022-07-29T09:09:33;101809.66;;;21.69;56.59
64886;BME280;51514;52.206;5.114;2022-07-29T09:11:59;101813.50;;;21.81;56.70
64886;BME280;51514;52.206;5.114;2022-07-29T09:14:24;101814.97;;;21.91;55.70
64886;BME280;51514;52.206;5.114;2022-07-29T09:16:55;101808.47;;;21.98;54.66
64886;BME280;51514;52.206;5.114;2022-07-29T09:19:29;101810.38;;;22.04;54.28
64886;BME280;51514;52.206;5.114;2022-07-29T09:21:56;101802.78;;;22.13;53.60
64886;BME280;51514;52.206;5.114;2022-07-29T09:27:00;101794.72;;;22.25;53.37
64886;BME280;51514;52.206;5.114;2022-07-29T09:29:25;101798.53;;;22.30;53.56
64886;BME280;51514;52.206;5.114;2022-07-29T09:31:53;101785.84;;;22.36;52.65
64886;BME280;51514;52.206;5.114;2022-07-29T09:34:27;101798.06;;;22.40;53.10
64886;BME280;51514;52.206;5.114;2022-07-29T09:36:54;101794.72;;;22.44;52.52
64886;BME280;51514;52.206;5.114;2022-07-29T09:39:35;101795.13;;;22.48;53.12
64886;BME280;51514;52.206;5.114;2022-07-29T09:42:03;101800.59;;;22.54;53.90
64886;BME280;51514;52.206;5.114;2022-07-29T09:44:49;101797.22;;;22.59;52.72
64886;BME280;51514;52.206;5.114;2022-07-29T09:47:17;101795.72;;;22.63;53.11
64886;BME280;51514;52.206;5.114;2022-07-29T09:49:57;101799.75;;;22.67;53.93
64886;BME280;51514;52.206;5.114;2022-07-29T09:52:23;101798.22;;;22.84;53.67
64886;BME280;51514;52.206;5.114;2022-07-29T09:54:49;101786.75;;;23.01;53.96
64886;BME280;51514;52.206;5.114;2022-07-29T09:57:42;101796.41;;;23.16;54.56
64886;BME280;51514;52.206;5.114;2022-07-29T10:00:10;101802.28;;;23.33;53.83
64886;BME280;51514;52.206;5.114;2022-07-29T10:02:38;101800.50;;;23.52;54.35
64886;BME280;51514;52.206;5.114;2022-07-29T10:05:06;101801.69;;;23.62;53.69
64886;BME280;51514;52.206;5.114;2022-07-29T10:07:58;101798.06;;;23.69;53.77
64886;BME280;51514;52.206;5.114;2022-07-29T10:10:28;101801.00;;;23.74;53.04
64886;BME280;51514;52.206;5.114;2022-07-29T10:12:59;101800.56;;;23.77;51.80
64886;BME280;51514;52.206;5.114;2022-07-29T10:15:26;101802.19;;;23.84;52.77
64886;BME280;51514;52.206;5.114;2022-07-29T10:17:54;101801.75;;;23.87;53.29
64886;BME280;51514;52.206;5.114;2022-07-29T10:20:20;101801.75;;;23.87;51.28
64886;BME280;51514;52.206;5.114;2022-07-29T10:22:46;101796.09;;;23.76;51.96
64886;BME280;51514;52.206;5.114;2022-07-29T10:25:12;101795.03;;;23.77;51.37
64886;BME280;51514;52.206;5.114;2022-07-29T10:27:37;101787.22;;;23.74;51.72
64886;BME280;51514;52.206;5.114;2022-07-29T10:30:04;101792.00;;;23.85;52.34
64886;BME280;51514;52.206;5.114;2022-07-29T10:36:02;101793.88;;;24.22;51.75
64886;BME280;51514;52.206;5.114;2022-07-29T10:38:51;101792.59;;;24.43;51.23
64886;BME280;51514;52.206;5.114;2022-07-29T10:44:02;101788.09;;;24.67;50.40
64886;BME280;51514;52.206;5.114;2022-07-29T10:46:35;101793.78;;;24.72;49.99
64886;BME280;51514;52.206;5.114;2022-07-29T10:52:09;101800.69;;;24.38;50.60
64886;BME280;51514;52.206;5.114;2022-07-29T10:59:41;101792.44;;;24.38;50.56
64886;BME280;51514;52.206;5.114;2022-07-29T11:07:22;101791.00;;;24.54;49.02
64886;BME280;51514;52.206;5.114;2022-07-29T11:15:03;101780.28;;;24.64;48.42
64886;BME280;51514;52.206;5.114;2022-07-29T11:20:37;101787.69;;;24.45;48.82
64886;BME280;51514;52.206;5.114;2022-07-29T11:23:30;101786.25;;;24.43;49.64
64886;BME280;51514;52.206;5.114;2022-07-29T11:28:54;101791.25;;;24.27;49.67
64886;BME280;51514;52.206;5.114;2022-07-29T11:31:35;101783.84;;;24.28;50.24
64886;BME280;51514;52.206;5.114;2022-07-29T11:34:26;101779.03;;;24.42;50.20
64886;BME280;51514;52.206;5.114;2022-07-29T11:39:40;101782.03;;;24.58;49.30
64886;BME280;51514;52.206;5.114;2022-07-29T11:44:54;101785.19;;;24.80;49.10
64886;BME280;51514;52.206;5.114;2022-07-29T11:47:21;101794.00;;;24.89;49.07
64886;BME280;51514;52.206;5.114;2022-07-29T11:49:47;101784.00;;;24.94;47.83
64886;BME280;51514;52.206;5.114;2022-07-29T11:52:13;101785.81;;;25.00;48.76
64886;BME280;51514;52.206;5.114;2022-07-29T11:54:41;101783.50;;;25.16;48.62
64886;BME280;51514;52.206;5.114;2022-07-29T11:57:07;101784.97;;;25.18;48.80
64886;BME280;51514;52.206;5.114;2022-07-29T11:59:39;101782.72;;;25.27;48.34
64886;BME280;51514;52.206;5.114;2022-07-29T12:02:04;101783.19;;;25.24;48.11
64886;BME280;51514;52.206;5.114;2022-07-29T12:04:30;101784.06;;;25.36;48.30
64886;BME280;51514;52.206;5.114;2022-07-29T12:06:55;101779.78;;;25.40;48.40
64886;BME280;51514;52.206;5.114;2022-07-29T12:09:22;101778.22;;;25.44;48.36
64886;BME280;51514;52.206;5.114;2022-07-29T12:11:49;101785.59;;;25.50;47.83
64886;BME280;51514;52.206;5.114;2022-07-29T12:14:32;101778.88;;;25.58;48.99
64886;BME280;51514;52.206;5.114;2022-07-29T12:16:58;101790.09;;;25.63;46.98
64886;BME280;51514;52.206;5.114;2022-07-29T12:19:25;101791.19;;;25.62;48.42
64886;BME280;51514;52.206;5.114;2022-07-29T12:21:53;101791.06;;;25.68;47.55
64886;BME280;51514;52.206;5.114;2022-07-29T12:24:20;101793.25;;;25.78;47.38
64886;BME280;51514;52.206;5.114;2022-07-29T12:26:56;101796.66;;;25.92;48.06
64886;BME280;51514;52.206;5.114;2022-07-29T12:29:22;101784.53;;;26.04;46.06
64886;BME280;51514;52.206;5.114;2022-07-29T12:31:52;101785.50;;;26.10;45.81
64886;BME280;51514;52.206;5.114;2022-07-29T12:34:23;101795.09;;;26.07;45.92
64886;BME280;51514;52.206;5.114;2022-07-29T12:36:50;101789.72;;;26.12;45.32
64886;BME280;51514;52.206;5.114;2022-07-29T12:39:16;101785.13;;;26.18;44.86
64886;BME280;51514;52.206;5.114;2022-07-29T12:41:43;101797.78;;;26.14;44.36
64886;BME280;51514;52.206;5.114;2022-07-29T12:44:09;101794.16;;;26.13;44.48
64886;BME280;51514;52.206;5.114;2022-07-29T12:46:34;101792.25;;;26.14;44.65
64886;BME280;51514;52.206;5.114;2022-07-29T12:49:00;101790.94;;;26.16;44.38
64886;BME280;51514;52.206;5.114;2022-07-29T12:51:32;101788.75;;;26.18;44.14
64886;BME280;51514;52.206;5.114;2022-07-29T12:54:07;101790.44;;;26.19;44.00
64886;BME280;51514;52.206;5.114;2022-07-29T12:56:33;101793.56;;;26.11;44.08
64886;BME280;51514;52.206;5.114;2022-07-29T12:58:58;101792.94;;;25.98;43.78
64886;BME280;51514;52.206;5.114;2022-07-29T13:01:24;101777.91;;;25.94;43.53
64886;BME280;51514;52.206;5.114;2022-07-29T13:03:50;101779.84;;;25.93;43.78
64886;BME280;51514;52.206;5.114;2022-07-29T13:09:06;101780.94;;;26.04;44.54
64886;BME280;51514;52.206;5.114;2022-07-29T13:11:43;101788.75;;;26.18;44.72
64886;BME280;51514;52.206;5.114;2022-07-29T13:14:11;101785.03;;;26.13;43.94
64886;BME280;51514;52.206;5.114;2022-07-29T13:16:50;101787.91;;;26.18;43.91
64886;BME280;51514;52.206;5.114;2022-07-29T13:19:34;101779.75;;;26.23;44.98
64886;BME280;51514;52.206;5.114;2022-07-29T13:22:00;101787.22;;;26.34;44.99
64886;BME280;51514;52.206;5.114;2022-07-29T13:24:25;101787.22;;;26.34;44.37
64886;BME280;51514;52.206;5.114;2022-07-29T13:26:51;101780.03;;;26.33;44.60
64886;BME280;51514;52.206;5.114;2022-07-29T13:29:17;101787.59;;;26.38;46.01
64886;BME280;51514;52.206;5.114;2022-07-29T13:31:42;101793.63;;;26.46;45.98
64886;BME280;51514;52.206;5.114;2022-07-29T13:34:07;101779.53;;;26.48;44.95
64886;BME280;51514;52.206;5.114;2022-07-29T13:36:33;101784.94;;;26.31;45.07
64886;BME280;51514;52.206;5.114;2022-07-29T13:38:58;101783.59;;;26.22;45.00